Lehigh Valley International Airport
KABE : now visible

Airfield :











YOU CAN JOIN US ON...

 
LOGIN :

Register | Disclaimer

   EN    FR    IT 

 









Legend :    VFR   Marginal VFR   IFR   Intensive IFR   Very Intensive IFR
Visi :
Ceiling :
>= 8 km
>= 3000ft
5 to 8 km
1000 to 3000 ft
1500m to 5 km
500 to 1000 ft
800 to 1500m
200 to 500 ft
< 800m
< 200 ft
Symbols :   Thunderstorms  Fog  Heavy snow  Heavy precipitations  Wind > 20 kt






- Airport Elevation : 393 ft
- IATA code : ABE


KABE - Lehigh Valley International

CURRENT METAR :
  • 061136Z 26006KT 8SM OVC010 22/19 A2983 RMK AO2 T02170194

EXPIRED METARs :
  • 061051Z 26006KT 6SM BR OVC008 21/19 A2982 RMK AO2 SLP096 T02110194
  • 061019Z 25004KT 5SM BR OVC011 21/19 A2982 RMK AO2 T02110194
  • 060951Z 26005KT 5SM BR OVC008 21/19 A2982 RMK AO2 SLP096 T02110194
  • 060908Z 25006KT 7SM OVC009 21/19 A2982 RMK AO2 T02110194

TAF KABE
Valid from the 06 at 12:00 until the 07 at 12:00 UTC


061136Z 0612/0712 26005KT 6SM BR OVC008
TEMPO 0612/0613 3SM BR OVC004
FM061300 26004KT 6SM BR BKN010
FM061500 27006KT P6SM SCT040
FM061700 28008G18KT P6SM SCT050
TEMPO 0619/0621 SHRA BKN035
FM062100 32010G20KT P6SM SCT050
FM070200 31008KT P6SM SKC
KZNY FIR / North America



MET'MAP, your aeronautical weather chart ! - Copyright ORBIFLY December 2007 - Disclaimer

ORBIFLY MET'MAP TEAM :

Programming & Development : Alexandra Zaïnal
Concept & original design : Baudouin d'Aumeries
Assistance for programming : Marc-Olivier Méhu
Technical & hardware support : Manuel Goepfert

Contact : metmap@orbifly.com




SOURCES & CREDITS :

   NOAA       Earth
Advisory